createdAt,value
2022-10-08T00:03:14.622Z,13.77
2022-10-08T00:08:20.819Z,6.80
2022-10-08T00:13:27.689Z,10.80
2022-10-08T00:18:35.691Z,9.55
2022-10-08T00:23:41.270Z,6.30
2022-10-08T00:28:49.216Z,8.10
2022-10-08T00:33:58.731Z,10.52
2022-10-08T00:39:07.464Z,9.57
2022-10-08T00:44:42.777Z,6.13
2022-10-08T00:49:53.292Z,8.00
2022-10-08T00:55:00.121Z,7.20
2022-10-08T01:00:08.449Z,6.60
2022-10-08T01:05:20.574Z,9.93
2022-10-08T01:10:39.474Z,9.70
2022-10-08T01:15:52.252Z,8.15
2022-10-08T01:21:10.320Z,6.07
2022-10-08T01:26:34.923Z,7.15
2022-10-08T01:31:48.071Z,7.32
2022-10-08T01:36:55.682Z,9.07
2022-10-08T01:42:04.916Z,5.32
2022-10-08T01:47:19.630Z,7.83
2022-10-08T01:52:29.498Z,7.20
2022-10-08T01:57:36.695Z,7.70
2022-10-08T02:02:45.812Z,7.33
2022-10-08T02:07:51.407Z,5.97
2022-10-08T02:12:56.974Z,12.10
2022-10-08T02:18:11.754Z,6.27
2022-10-08T02:23:25.053Z,5.30
2022-10-08T02:28:36.111Z,8.47
2022-10-08T02:33:47.639Z,11.10
2022-10-08T02:38:55.906Z,16.83
2022-10-08T02:44:06.515Z,6.10
2022-10-08T02:49:19.342Z,6.90
2022-10-08T02:54:26.492Z,5.37
2022-10-08T02:59:33.339Z,5.65
2022-10-08T03:04:45.318Z,9.55
2022-10-08T03:09:52.076Z,10.13
2022-10-08T03:14:58.250Z,8.98
2022-10-08T03:20:09.173Z,7.43
2022-10-08T03:25:14.572Z,9.35
2022-10-08T03:30:20.082Z,12.30
2022-10-08T03:35:28.910Z,6.40
2022-10-08T03:40:34.318Z,5.35
2022-10-08T03:45:39.689Z,6.37
2022-10-08T03:50:56.097Z,7.07
2022-10-08T03:56:04.319Z,7.97
2022-10-08T04:01:11.893Z,10.90
2022-10-08T04:06:20.275Z,10.80
2022-10-08T04:11:25.628Z,7.57
2022-10-08T04:16:31.219Z,8.65
2022-10-08T04:21:39.743Z,7.40
2022-10-08T04:26:44.907Z,6.73
2022-10-08T04:31:50.313Z,6.30
2022-10-08T04:36:58.511Z,7.70
2022-10-08T04:42:04.567Z,6.03
2022-10-08T04:47:09.977Z,10.63
2022-10-08T04:52:20.761Z,5.80
2022-10-08T04:57:26.254Z,6.30
2022-10-08T05:02:31.898Z,8.48
2022-10-08T05:07:39.771Z,7.37
2022-10-08T05:12:46.153Z,9.27
2022-10-08T05:17:51.567Z,7.07
2022-10-08T05:22:59.529Z,10.13
2022-10-08T05:28:05.405Z,8.97
2022-10-08T05:33:10.825Z,10.20
2022-10-08T05:38:19.299Z,7.80
2022-10-08T05:43:24.741Z,11.23
2022-10-08T05:48:30.109Z,7.53
2022-10-08T05:53:40.580Z,7.97
2022-10-08T05:58:47.202Z,6.93
2022-10-08T06:03:53.821Z,6.57
2022-10-08T06:09:03.725Z,8.87
2022-10-08T06:14:09.972Z,5.85
2022-10-08T06:19:15.384Z,8.63
2022-10-08T06:24:23.402Z,4.00
2022-10-08T06:29:28.800Z,5.60
2022-10-08T06:34:34.363Z,7.70
2022-10-08T06:39:47.547Z,6.82
2022-10-08T06:44:54.572Z,5.93
2022-10-08T06:50:02.056Z,12.40
2022-10-08T06:55:10.944Z,8.98
2022-10-08T07:00:17.643Z,9.80
2022-10-08T07:05:23.716Z,10.57
2022-10-08T07:10:33.790Z,9.55
2022-10-08T07:15:39.163Z,12.47
2022-10-08T07:20:44.604Z,12.13
2022-10-08T07:26:01.061Z,10.57
2022-10-08T07:31:07.629Z,10.40
2022-10-08T07:36:14.764Z,15.10
2022-10-08T07:41:22.954Z,12.80
2022-10-08T07:46:29.020Z,14.63
2022-10-08T07:51:35.680Z,13.20
2022-10-08T07:56:44.394Z,17.33
2022-10-08T08:01:50.046Z,20.20
2022-10-08T08:06:55.323Z,14.30
2022-10-08T08:12:03.551Z,13.03
2022-10-08T08:17:08.779Z,13.33
2022-10-08T08:22:14.909Z,17.05
2022-10-08T08:27:25.740Z,12.70
2022-10-08T08:32:31.133Z,15.50
2022-10-08T08:37:36.774Z,12.43
2022-10-08T08:42:57.780Z,15.60
2022-10-08T08:48:07.797Z,11.00
2022-10-08T08:53:13.950Z,15.93
2022-10-08T08:58:37.902Z,10.83
2022-10-08T09:03:47.531Z,11.53
2022-10-08T09:08:56.159Z,13.18
2022-10-08T09:14:18.374Z,12.53
2022-10-08T09:19:24.296Z,8.90
2022-10-08T09:24:30.315Z,6.90
2022-10-08T09:29:38.648Z,9.23
2022-10-08T09:34:44.226Z,7.20
2022-10-08T09:40:22.919Z,9.65
2022-10-08T09:45:41.253Z,7.17
2022-10-08T09:50:53.461Z,7.70
2022-10-08T09:56:02.511Z,9.27
2022-10-08T10:01:19.318Z,9.10
2022-10-08T10:06:30.563Z,9.50
2022-10-08T10:11:42.130Z,7.13
2022-10-08T10:16:58.662Z,6.45
2022-10-08T10:22:08.091Z,6.33
2022-10-08T10:27:17.889Z,8.82
2022-10-08T10:32:32.445Z,7.43
2022-10-08T10:37:45.113Z,3.73
2022-10-08T10:42:57.033Z,6.85
2022-10-08T10:48:08.392Z,8.38
2022-10-08T10:53:22.352Z,6.00
2022-10-08T10:58:41.125Z,5.18
2022-10-08T11:03:56.975Z,6.93
2022-10-08T11:09:06.002Z,3.60
2022-10-08T11:14:25.475Z,3.92
2022-10-08T11:19:45.692Z,3.50
2022-10-08T11:25:04.272Z,4.73
2022-10-08T11:30:14.861Z,2.55
2022-10-08T11:35:37.701Z,3.53
2022-10-08T11:40:48.778Z,0.90
2022-10-08T11:46:22.629Z,4.22
2022-10-08T11:51:37.923Z,2.03
2022-10-08T11:56:46.224Z,7.83
2022-10-08T12:01:53.604Z,4.68
2022-10-08T12:07:21.301Z,5.15
2022-10-08T12:12:27.015Z,1.97
2022-10-08T12:17:55.195Z,4.20
2022-10-08T12:23:12.298Z,3.92
2022-10-08T12:28:56.816Z,4.00
2022-10-08T12:34:05.076Z,6.13
2022-10-08T12:39:20.305Z,2.88
2022-10-08T12:44:45.861Z,5.53
2022-10-08T12:49:57.105Z,3.45
2022-10-08T12:55:08.546Z,1.88
2022-10-08T13:00:25.182Z,3.00
2022-10-08T13:05:33.131Z,4.10
2022-10-08T13:10:41.354Z,2.65
2022-10-08T13:15:46.660Z,4.35
2022-10-08T13:20:59.796Z,5.07
2022-10-08T13:26:08.009Z,7.82
2022-10-08T13:31:25.135Z,2.30
2022-10-08T13:36:33.436Z,3.13
2022-10-08T13:41:52.871Z,2.83
2022-10-08T13:47:03.563Z,3.42
2022-10-08T13:52:09.813Z,1.47
2022-10-08T13:57:18.139Z,1.90
2022-10-08T14:02:23.591Z,2.90
2022-10-08T14:07:31.585Z,3.13
2022-10-08T14:12:39.658Z,1.23
2022-10-08T14:17:46.077Z,4.28
2022-10-08T14:22:52.174Z,2.47
2022-10-08T14:28:00.638Z,4.88
2022-10-08T14:33:10.965Z,4.57
2022-10-08T14:38:16.779Z,2.50
2022-10-08T14:43:27.622Z,3.60
2022-10-08T14:48:33.333Z,3.08
2022-10-08T14:53:38.840Z,1.20
2022-10-08T14:58:46.863Z,3.90
2022-10-08T15:03:52.290Z,2.40
2022-10-08T15:08:57.711Z,3.33
2022-10-08T15:14:05.923Z,2.38
2022-10-08T15:19:11.622Z,3.95
2022-10-08T15:24:17.054Z,1.93
2022-10-08T15:29:25.683Z,1.40
2022-10-08T15:34:31.098Z,2.60
2022-10-08T15:39:36.829Z,3.93
2022-10-08T15:44:46.718Z,9.50
2022-10-08T15:49:52.394Z,0.90
2022-10-08T15:54:57.885Z,1.67
2022-10-08T16:00:06.277Z,2.10
2022-10-08T16:05:17.720Z,3.22
2022-10-08T16:10:23.332Z,3.37
2022-10-08T16:15:31.453Z,3.60
2022-10-08T16:20:37.939Z,4.87
2022-10-08T16:25:45.498Z,4.53
2022-10-08T16:30:54.127Z,4.70
2022-10-08T16:36:04.085Z,3.53
2022-10-08T16:41:15.199Z,5.93
2022-10-08T16:46:25.355Z,2.45
2022-10-08T16:51:33.504Z,2.70
2022-10-08T16:56:41.641Z,2.63
2022-10-08T17:01:51.967Z,3.30
2022-10-08T17:06:57.924Z,5.73
2022-10-08T17:12:03.915Z,15.27
2022-10-08T17:17:12.134Z,4.40
2022-10-08T17:22:17.664Z,2.70
2022-10-08T17:27:23.264Z,4.23
2022-10-08T17:32:31.847Z,3.20
2022-10-08T17:37:37.211Z,3.63
2022-10-08T17:42:42.702Z,2.27
2022-10-08T17:47:50.892Z,2.25
2022-10-08T17:52:58.165Z,2.80
2022-10-08T17:58:03.895Z,4.97
2022-10-08T18:03:12.513Z,10.38
2022-10-08T18:08:17.851Z,3.13
2022-10-08T18:13:26.652Z,3.47
2022-10-08T18:18:35.227Z,3.28
2022-10-08T18:23:42.202Z,3.10
2022-10-08T18:28:48.417Z,2.63
2022-10-08T18:33:59.628Z,3.03
2022-10-08T18:39:08.359Z,3.83
2022-10-08T18:44:16.289Z,5.47
2022-10-08T18:49:30.594Z,6.30
2022-10-08T18:54:36.409Z,11.93
2022-10-08T18:59:41.865Z,5.37
2022-10-08T19:04:51.443Z,9.73
2022-10-08T19:09:57.095Z,6.60
2022-10-08T19:15:02.361Z,11.90
2022-10-08T19:20:11.430Z,6.57
2022-10-08T19:25:16.827Z,6.07
2022-10-08T19:30:26.570Z,8.37
2022-10-08T19:35:36.440Z,10.05
2022-10-08T19:40:42.070Z,8.93
2022-10-08T19:45:47.309Z,5.03
2022-10-08T19:50:55.472Z,6.15
2022-10-08T19:56:00.866Z,7.83
2022-10-08T20:01:10.588Z,6.50
2022-10-08T20:06:24.589Z,7.38
2022-10-08T20:11:32.402Z,7.27
2022-10-08T20:16:40.611Z,9.87
2022-10-08T20:21:49.516Z,6.57
2022-10-08T20:26:55.448Z,11.10
2022-10-08T20:32:01.308Z,7.93
2022-10-08T20:37:09.632Z,8.48
2022-10-08T20:42:14.874Z,6.90
2022-10-08T20:47:20.239Z,10.43
2022-10-08T20:52:28.534Z,6.73
2022-10-08T20:57:33.743Z,5.07
2022-10-08T21:02:39.641Z,7.55
2022-10-08T21:07:47.796Z,10.33
2022-10-08T21:12:53.210Z,6.60
2022-10-08T21:17:58.787Z,7.25
2022-10-08T21:23:07.158Z,7.80
2022-10-08T21:28:12.690Z,9.32
2022-10-08T21:33:18.286Z,11.23
2022-10-08T21:38:26.480Z,9.80
2022-10-08T21:43:33.081Z,9.90
2022-10-08T21:48:38.899Z,11.43
2022-10-08T21:53:49.042Z,8.90
2022-10-08T21:58:56.154Z,14.47
2022-10-08T22:04:03.475Z,12.30
2022-10-08T22:09:14.433Z,10.27
2022-10-08T22:14:20.850Z,8.60
2022-10-08T22:19:26.382Z,10.80
2022-10-08T22:24:36.284Z,11.23
2022-10-08T22:29:42.099Z,12.40
2022-10-08T22:34:47.488Z,7.97
2022-10-08T22:39:55.290Z,9.85
2022-10-08T22:45:00.854Z,14.70
2022-10-08T22:50:06.916Z,9.32
2022-10-08T22:55:17.069Z,10.47
2022-10-08T23:00:22.883Z,8.53
2022-10-08T23:05:28.531Z,8.38
2022-10-08T23:10:36.409Z,10.37
2022-10-08T23:15:41.983Z,9.80
2022-10-08T23:20:47.448Z,9.10
2022-10-08T23:26:00.531Z,12.60
2022-10-08T23:31:07.903Z,8.52
2022-10-08T23:36:15.410Z,9.05
2022-10-08T23:41:23.683Z,9.07
2022-10-08T23:46:31.083Z,8.00
2022-10-08T23:51:36.484Z,7.83
2022-10-08T23:56:44.540Z,10.15
